Time;durP1;ratioP1;P1;durP2;ratioP2;P2;SDS_P1;SDS_P2;PMS_P1;PMS_P2;Temp;Humidity;BMP_temperature;BMP_pressure;BME280_temperature;BME280_humidity;BME280_pressure;Samples;Min_cycle;Max_cycle;Signal;HPM_P1;HPM_P2
2023/05/21 00:02:03;;;;;;;;;;;;;;;14.23;77.83;101848.75;5090831;28;20059;-36
2023/05/21 00:04:30;;;;;;;4.18;2.05;;;;;;;14.05;81.55;101853.16;5090769;28;19919;-36
2023/05/21 00:06:57;;;;;;;4.90;2.17;;;;;;;13.95;82.73;101841.19;5089919;28;20060;-36
2023/05/21 00:09:23;;;;;;;2.75;2.10;;;;;;;14.00;82.21;101844.03;5089856;28;20039;-36
2023/05/21 00:11:48;;;;;;;;;;;;;;;14.11;78.63;101840.56;5081723;28;20392;-36
2023/05/21 00:14:13;;;;;;;2.77;1.70;;;;;;;13.99;82.60;101842.38;5076243;28;20268;-36
2023/05/21 00:16:39;;;;;;;2.63;2.00;;;;;;;13.87;82.89;101845.06;5076540;28;20631;-36
2023/05/21 00:19:05;;;;;;;;;;;;;;;14.04;79.47;101837.91;5076248;28;20036;-36
2023/05/21 00:21:30;;;;;;;3.42;1.90;;;;;;;13.84;83.93;101840.06;5076155;28;19912;-36
2023/05/21 00:23:55;;;;;;;2.55;2.00;;;;;;;13.74;83.74;101827.00;5076093;28;20128;-36
2023/05/21 00:26:22;;;;;;;5.75;2.22;;;;;;;13.77;83.79;101828.47;5076402;28;20033;-36
2023/05/21 00:28:48;;;;;;;2.67;1.90;;;;;;;13.68;83.10;101833.38;5076524;28;20075;-36
2023/05/21 00:31:14;;;;;;;;;;;;;;;13.82;81.41;101828.59;5077277;28;20032;-36
2023/05/21 00:33:40;;;;;;;3.72;2.00;;;;;;;13.65;84.45;101831.09;5075924;28;19965;-36
2023/05/21 00:36:05;;;;;;;;;;;;;;;13.80;81.20;101827.97;5076640;28;20111;-36
2023/05/21 00:38:31;;;;;;;3.28;2.22;;;;;;;13.69;84.96;101826.03;5075578;28;20367;-36
2023/05/21 00:40:58;;;;;;;;;;;;;;;13.81;82.02;101826.91;5076168;28;20032;-36
2023/05/21 00:43:25;;;;;;;2.15;1.80;;;;;;;13.67;85.09;101822.72;5076053;28;20314;-36
2023/05/21 00:45:52;;;;;;;2.40;2.00;;;;;;;13.57;85.72;101806.97;5076008;28;20070;-36
2023/05/21 00:48:19;;;;;;;3.00;2.40;;;;;;;13.50;86.60;101812.44;5075584;28;20104;-36
2023/05/21 00:50:45;;;;;;;2.85;2.25;;;;;;;13.56;87.15;101818.88;5075610;28;20039;-36
2023/05/21 00:53:12;;;;;;;;;;;;;;;13.66;83.63;101816.44;5076254;28;20037;-36
2023/05/21 00:55:38;;;;;;;2.88;2.05;;;;;;;13.51;87.06;101816.00;5075540;28;19966;-36
2023/05/21 00:58:03;;;;;;;4.15;2.28;;;;;;;13.47;87.27;101815.66;5075501;28;20028;-36
2023/05/21 01:00:33;;;;;;;4.47;2.30;;;;;;;13.39;87.57;101807.78;5075286;28;20131;-36
2023/05/21 01:03:03;;;;;;;3.42;2.17;;;;;;;13.29;87.55;101821.88;5075116;28;20027;-36
2023/05/21 01:05:29;;;;;;;5.75;2.38;;;;;;;13.38;88.95;101815.09;5075957;28;20028;-36
2023/05/21 01:07:56;;;;;;;;;;;;;;;13.50;84.86;101817.88;5075982;28;20107;-36
2023/05/21 01:10:23;;;;;;;3.30;2.20;;;;;;;13.35;86.92;101803.84;5076006;28;19959;-36
2023/05/21 01:12:49;;;;;;;3.33;2.00;;;;;;;13.39;87.83;101805.06;5075172;28;20044;-36
2023/05/21 01:15:15;;;;;;;5.18;2.40;;;;;;;13.40;87.97;101810.25;5075920;28;20078;-36
2023/05/21 01:17:40;;;;;;;;;;;;;;;13.53;84.93;101813.91;5075538;28;20035;-36
2023/05/21 01:20:10;;;;;;;7.70;1.73;;;;;;;13.35;88.68;101801.97;5075754;28;20002;-36
2023/05/21 01:22:40;;;;;;;2.50;1.92;;;;;;;13.36;88.93;101811.75;5074717;28;20060;-36
2023/05/21 01:25:06;;;;;;;3.33;2.13;;;;;;;13.32;86.45;101804.28;5074790;28;20024;-36
2023/05/21 01:27:31;;;;;;;;;;;;;;;13.38;85.09;101809.69;5075010;28;20077;-36
2023/05/21 01:29:57;;;;;;;3.73;2.33;;;;;;;13.22;89.83;101810.25;5074813;28;19916;-36
2023/05/21 01:32:31;;;;;;;3.13;2.20;;;;;;;13.24;90.00;101810.03;5075109;28;20649;-36
2023/05/21 01:35:23;;;;;;;2.50;2.30;;;;;;;13.27;89.53;101806.84;5074716;28;20031;-36
2023/05/21 01:38:04;;;;;;;3.15;2.40;;;;;;;13.28;90.04;101800.41;5074733;28;20052;-36
2023/05/21 01:40:53;;;;;;;2.80;2.13;;;;;;;13.17;90.15;101795.66;5075097;28;20063;-36
2023/05/21 01:43:19;;;;;;;3.67;1.95;;;;;;;13.25;89.30;101798.13;5074365;28;20031;-36
2023/05/21 01:45:46;;;;;;;3.80;2.20;;;;;;;13.29;90.02;101804.75;5075098;28;20103;-36
2023/05/21 01:48:12;;;;;;;2.50;2.00;;;;;;;13.20;90.68;101795.22;5074400;28;20058;-36
2023/05/21 01:50:39;;;;;;;3.05;2.20;;;;;;;13.25;89.50;101785.38;5074691;28;20033;-36
2023/05/21 01:53:04;;;;;;;2.95;2.20;;;;;;;13.37;90.66;101808.03;5074102;28;20433;-36
2023/05/21 01:55:30;;;;;;;;;;;;;;;13.43;87.70;101802.72;5075354;28;20059;-36
2023/05/21 01:57:56;;;;;;;2.90;2.20;;;;;;;13.37;90.16;101796.28;5074292;28;19961;-36
2023/05/21 02:00:25;;;;;;;2.50;2.30;;;;;;;13.42;89.68;101799.19;5074968;28;20091;-36
2023/05/21 02:02:51;;;;;;;3.13;2.20;;;;;;;13.37;91.73;101796.28;5074103;28;20028;-36
2023/05/21 02:05:16;;;;;;;;;;;;;;;13.51;88.40;101792.38;5074842;28;20025;-36
2023/05/21 02:07:44;;;;;;;3.75;2.10;;;;;;;13.48;91.02;101790.13;5074058;28;20053;-36
2023/05/21 02:10:10;;;;;;;5.50;2.35;;;;;;;13.43;90.29;101789.97;5073852;28;20111;-36
2023/05/21 02:12:35;;;;;;;3.25;2.47;;;;;;;13.40;90.69;101791.25;5074437;28;20024;-36
2023/05/21 02:15:01;;;;;;;;;;;;;;;13.53;87.71;101790.28;5074206;28;20365;-36
2023/05/21 02:17:30;;;;;;;4.68;2.15;;;;;;;13.46;89.99;101783.25;5073876;28;19908;-36
2023/05/21 02:19:55;;;;;;;3.25;2.30;;;;;;;13.45;91.08;101787.84;5073797;28;20109;-36
2023/05/21 02:22:21;;;;;;;;;;;;;;;13.56;88.93;101783.53;5074860;28;20063;-36
2023/05/21 02:24:46;;;;;;;3.92;2.38;;;;;;;13.41;91.76;101781.22;5074119;28;19908;-36
2023/05/21 02:27:12;;;;;;;3.58;2.25;;;;;;;13.51;90.17;101777.97;5073894;28;20028;-36
2023/05/21 02:29:37;;;;;;;;;;;;;;;13.61;88.21;101791.84;5073913;28;20037;-36
2023/05/21 02:32:03;;;;;;;2.40;2.05;;;;;;;13.57;91.27;101779.78;5074354;28;19908;-36
2023/05/21 02:34:31;;;;;;;2.65;2.30;;;;;;;13.64;91.09;101791.38;5073516;28;20425;-36
2023/05/21 02:36:57;;;;;;;3.20;2.20;;;;;;;13.59;91.19;101788.53;5073427;28;20039;-36
2023/05/21 02:39:23;;;;;;;3.05;2.38;;;;;;;13.68;91.25;101797.22;5073548;28;20025;-36
2023/05/21 02:41:48;;;;;;;;;;;;;;;13.74;89.38;101797.13;5074692;28;20078;-36
2023/05/21 02:44:13;;;;;;;2.85;2.22;;;;;;;13.57;90.49;101775.19;5073570;28;19908;-36
2023/05/21 02:46:39;;;;;;;3.03;2.60;;;;;;;13.64;91.01;101775.91;5073323;28;20085;-36
2023/05/21 02:49:04;;;;;;;2.75;2.33;;;;;;;13.60;91.50;101774.69;5073820;28;20036;-36
2023/05/21 02:51:30;;;;;;;2.57;2.37;;;;;;;13.67;91.36;101779.25;5074142;28;20426;-36
2023/05/21 02:53:55;;;;;;;3.63;2.83;;;;;;;13.70;91.86;101774.16;5073241;28;20266;-36
2023/05/21 02:56:21;;;;;;;2.78;2.55;;;;;;;13.68;92.20;101781.72;5074323;28;20032;-36
2023/05/21 02:58:46;;;;;;;3.08;2.40;;;;;;;13.71;92.15;101783.13;5073476;28;20039;-36
2023/05/21 03:01:12;;;;;;;3.47;2.80;;;;;;;13.72;92.43;101782.94;5074365;28;20119;-36
2023/05/21 03:03:37;;;;;;;;;;;;;;;13.81;90.68;101775.25;5074131;28;20461;-36
2023/05/21 03:06:02;;;;;;;4.77;2.63;;;;;;;13.68;92.29;101772.75;5073459;28;20265;-36
2023/05/21 03:08:28;;;;;;;3.83;2.53;;;;;;;13.71;92.73;101764.94;5073299;28;20665;-36
2023/05/21 03:10:54;;;;;;;4.70;2.88;;;;;;;13.71;92.08;101769.53;5073628;28;20064;-36
2023/05/21 03:13:20;;;;;;;4.35;2.63;;;;;;;13.67;91.80;101768.38;5073034;28;20098;-36
2023/05/21 03:15:45;;;;;;;3.05;2.40;;;;;;;13.63;93.16;101755.22;5073307;28;20028;-36
2023/05/21 03:18:11;;;;;;;;;;;;;;;13.78;90.72;101754.81;5073641;28;20028;-36
2023/05/21 03:20:42;;;;;;;3.60;2.47;;;;;;;13.74;92.73;101763.66;5074042;28;19912;-36
2023/05/21 03:23:08;;;;;;;3.17;2.40;;;;;;;13.65;92.77;101744.94;5073524;28;20044;-36
2023/05/21 03:25:33;;;;;;;;;;;;;;;13.80;90.94;101749.97;5074273;28;20115;-36
2023/05/21 03:27:58;;;;;;;2.47;1.97;;;;;;;13.79;93.17;101750.22;5073679;28;19908;-36
2023/05/21 03:30:24;;;;;;;2.87;2.30;;;;;;;13.70;92.25;101736.09;5073522;28;20263;-36
2023/05/21 03:32:50;;;;;;;3.50;2.47;;;;;;;13.72;92.59;101738.63;5073415;28;20262;-36
2023/05/21 03:35:15;;;;;;;3.15;2.45;;;;;;;13.67;93.82;101744.75;5073134;28;20032;-36
2023/05/21 03:37:40;;;;;;;;;;;;;;;13.83;91.39;101756.84;5073492;28;20058;-36
2023/05/21 03:40:06;;;;;;;3.87;2.83;;;;;;;13.74;93.44;101750.06;5073312;28;19912;-36
2023/05/21 03:42:32;;;;;;;;;;;;;;;13.84;91.29;101753.06;5073150;28;20274;-36
2023/05/21 03:44:57;;;;;;;5.57;2.57;;;;;;;13.73;93.99;101745.72;5073403;28;19915;-36
2023/05/21 03:47:22;;;;;;;2.90;2.58;;;;;;;13.78;93.24;101759.44;5075737;28;20266;-36
2023/05/21 03:49:48;;;;;;;2.93;2.63;;;;;;;13.71;93.13;101761.41;5076468;28;20029;-36
2023/05/21 03:52:13;;;;;;;3.23;2.70;;;;;;;13.60;95.46;101754.84;5076445;28;20262;-36
2023/05/21 03:54:38;;;;;;;3.30;3.00;;;;;;;13.59;95.02;101761.34;5076288;28;20297;-36
2023/05/21 03:57:04;;;;;;;4.03;2.90;;;;;;;13.63;95.18;101760.66;5077220;28;20056;-36
2023/05/21 03:59:29;;;;;;;4.10;2.75;;;;;;;13.63;96.06;101759.84;5076250;28;20049;-36
2023/05/21 04:01:55;;;;;;;;;;;;;;;13.71;93.01;101754.06;5076948;28;20028;-36
2023/05/21 04:04:20;;;;;;;4.23;2.97;;;;;;;13.56;95.32;101756.38;5076721;28;20268;-36
2023/05/21 04:06:47;;;;;;;3.57;2.53;;;;;;;13.60;96.01;101752.97;5076709;28;20277;-36
2023/05/21 04:09:12;;;;;;;3.20;2.80;;;;;;;13.62;95.66;101760.91;5076318;28;20301;-36
2023/05/21 04:11:37;;;;;;;;;;;;;;;13.71;93.39;101767.66;5077630;28;20028;-36
2023/05/21 04:14:03;;;;;;;4.70;3.05;;;;;;;13.63;95.95;101763.38;5075929;28;19908;-36
2023/05/21 04:16:28;;;;;;;3.05;2.55;;;;;;;13.65;95.63;101768.59;5076667;28;20024;-36
2023/05/21 04:18:56;;;;;;;;;;;;;;;13.72;93.32;101766.63;5076596;28;20166;-37
2023/05/21 04:21:22;;;;;;;3.75;2.90;;;;;;;13.63;95.56;101762.56;5076408;28;19965;-36
2023/05/21 04:23:47;;;;;;;;;;;;;;;13.70;92.83;101762.47;5075351;28;20107;-36
2023/05/21 04:26:15;;;;;;;2.70;2.50;;;;;;;13.58;94.69;101768.69;5076090;28;19909;-36
2023/05/21 04:28:41;;;;;;;4.55;3.03;;;;;;;13.49;95.61;101767.31;5076006;28;20382;-36
2023/05/21 04:31:07;;;;;;;3.42;2.63;;;;;;;13.42;97.08;101749.44;5076548;28;20032;-36
2023/05/21 04:33:34;;;;;;;3.25;2.78;;;;;;;13.50;97.35;101758.09;5075886;28;20026;-36
2023/05/21 04:36:00;;;;;;;3.70;3.15;;;;;;;13.50;97.57;101763.53;5076183;28;20461;-37
2023/05/21 04:38:26;;;;;;;4.32;2.97;;;;;;;13.51;97.77;101765.19;5075875;28;20086;-37
2023/05/21 04:40:51;;;;;;;;;;;;;;;13.56;95.73;101768.06;5076215;28;20460;-37
2023/05/21 04:43:24;;;;;;;3.70;2.72;;;;;;;13.38;97.83;101760.78;5075789;28;19916;-37
2023/05/21 04:45:50;;;;;;;5.03;2.78;;;;;;;13.48;97.52;101767.56;5075730;28;20031;-37
2023/05/21 04:48:16;;;;;;;;;;;;;;;13.60;95.29;101771.97;5076071;28;20032;-37
2023/05/21 04:50:42;;;;;;;5.13;2.93;;;;;;;13.52;97.70;101772.31;5075634;28;19912;-37
2023/05/21 04:53:07;;;;;;;;;;;;;;;13.61;95.05;101760.03;5076000;28;20029;-37
2023/05/21 04:55:35;;;;;;;3.50;3.05;;;;;;;13.51;97.97;101773.34;5075804;28;19916;-37
2023/05/21 04:58:00;;;;;;;4.40;3.50;;;;;;;13.46;98.50;101775.09;5075662;28;20024;-37
2023/05/21 05:00:26;;;;;;;;;;;;;;;13.60;95.64;101776.59;5076306;28;20453;-37
2023/05/21 05:02:51;;;;;;;3.60;3.22;;;;;;;13.53;97.61;101767.72;5075337;28;19951;-37
2023/05/21 05:05:17;;;;;;;;;;;;;;;13.57;97.36;101772.47;5076373;28;20063;-37
2023/05/21 05:07:42;;;;;;;3.78;3.08;;;;;;;13.55;98.40;101774.56;5075273;28;20257;-37
2023/05/21 05:10:08;;;;;;;4.78;3.20;;;;;;;13.61;98.70;101770.91;5075283;28;20048;-37
2023/05/21 05:12:33;;;;;;;5.13;3.20;;;;;;;13.51;98.08;101762.47;5075159;28;20032;-37
2023/05/21 05:14:58;;;;;;;5.20;3.40;;;;;;;13.53;99.24;101773.13;5075250;28;20071;-37
2023/05/21 05:17:24;;;;;;;4.53;3.38;;;;;;;13.61;99.27;101762.75;5075693;28;20294;-37
2023/05/21 05:19:49;;;;;;;4.90;3.33;;;;;;;13.61;98.87;101772.81;5074969;28;20028;-37
2023/05/21 05:22:15;;;;;;;;;;;;;;;13.69;96.96;101764.34;5075787;28;20060;-37
2023/05/21 05:24:40;;;;;;;4.63;3.63;;;;;;;13.64;98.66;101765.03;5074950;28;19937;-37
2023/05/21 05:27:05;;;;;;;;;;;;;;;13.70;97.10;101765.19;5075136;28;20029;-37
2023/05/21 05:29:31;;;;;;;3.58;3.22;;;;;;;13.57;100.00;101756.16;5074533;28;19912;-37
2023/05/21 05:31:56;;;;;;;5.65;3.90;;;;;;;13.71;99.42;101770.38;5075130;28;20034;-37
2023/05/21 05:34:21;;;;;;;4.77;4.00;;;;;;;13.72;99.32;101761.19;5075377;28;20158;-37
2023/05/21 05:36:47;;;;;;;4.82;3.75;;;;;;;13.72;99.07;101765.78;5074724;28;20263;-37
2023/05/21 05:39:12;;;;;;;4.67;3.77;;;;;;;13.72;99.64;101768.50;5074320;28;20041;-37
2023/05/21 05:41:37;;;;;;;4.05;3.50;;;;;;;13.71;99.78;101759.50;5075188;28;20266;-37
2023/05/21 05:44:03;;;;;;;;;;;;;;;13.88;97.36;101768.69;5075565;28;20426;-37
2023/05/21 05:46:28;;;;;;;3.30;3.00;;;;;;;13.80;99.56;101754.59;5074895;28;19908;-37
2023/05/21 05:48:53;;;;;;;;;;;;;;;13.99;97.15;101772.50;5075199;28;20024;-37
2023/05/21 05:51:19;;;;;;;4.65;3.30;;;;;;;14.02;99.01;101763.91;5074728;28;19908;-37
2023/05/21 05:53:44;;;;;;;3.97;3.58;;;;;;;14.03;98.94;101762.00;5074667;28;20078;-37
2023/05/21 05:56:10;;;;;;;3.97;3.58;;;;;;;14.03;98.12;101762.84;5074891;28;20094;-37
2023/05/21 05:58:35;;;;;;;4.68;3.92;;;;;;;14.05;98.59;101770.75;5074567;28;20108;-37
2023/05/21 06:01:00;;;;;;;6.80;3.90;;;;;;;14.06;98.92;101762.38;5074289;28;20052;-37
2023/05/21 06:03:27;;;;;;;4.45;3.55;;;;;;;14.18;98.44;101768.66;5074008;28;20031;-37
2023/05/21 06:05:52;;;;;;;;;;;;;;;14.29;96.83;101768.94;5075435;28;20024;-37
2023/05/21 06:08:17;;;;;;;3.90;3.47;;;;;;;14.29;98.55;101771.66;5074673;28;19915;-37
2023/05/21 06:10:42;;;;;;;;;;;;;;;14.39;96.56;101764.56;5074636;28;20388;-37
2023/05/21 06:13:08;;;;;;;3.50;3.20;;;;;;;14.38;97.73;101762.09;5073794;28;19908;-37
2023/05/21 06:15:33;;;;;;;5.97;4.20;;;;;;;14.48;97.70;101765.09;5074598;28;20626;-37
2023/05/21 06:17:58;;;;;;;3.67;3.13;;;;;;;14.55;97.86;101768.53;5074221;28;20343;-37
2023/05/21 06:20:24;;;;;;;4.60;4.03;;;;;;;14.54;97.81;101761.44;5073886;28;20331;-37
2023/05/21 06:22:49;;;;;;;;;;;;;;;14.73;96.70;101766.78;5074298;28;20032;-37
2023/05/21 06:25:15;;;;;;;3.57;3.20;;;;;;;14.77;97.11;101762.50;5074172;28;19908;-37
2023/05/21 06:27:40;;;;;;;4.38;3.85;;;;;;;14.85;96.18;101767.63;5073822;28;20271;-37
2023/05/21 06:30:06;;;;;;;4.30;3.65;;;;;;;14.87;96.05;101762.75;5073546;28;20042;-37
2023/05/21 06:32:31;;;;;;;;;;;;;;;15.04;95.56;101762.88;5074728;28;20077;-37
2023/05/21 06:34:56;;;;;;;4.28;3.88;;;;;;;14.95;96.06;101746.06;5074362;28;19908;-37
2023/05/21 06:37:22;;;;;;;;;;;;;;;15.19;94.68;101769.47;5074207;28;20029;-37
2023/05/21 06:39:47;;;;;;;4.22;3.83;;;;;;;15.12;94.77;101757.88;5073574;28;19912;-37
2023/05/21 06:42:13;;;;;;;;;;;;;;;15.28;94.09;101769.13;5074907;28;20028;-36
2023/05/21 06:44:38;;;;;;;4.45;3.63;;;;;;;15.25;93.19;101753.25;5074169;28;19931;-37
2023/05/21 06:47:03;;;;;;;;;;;;;;;15.40;93.32;101761.72;5074036;28;20032;-37
2023/05/21 06:49:29;;;;;;;4.53;3.55;;;;;;;15.38;94.82;101759.25;5073186;28;19908;-36
2023/05/21 06:51:54;;;;;;;4.15;3.75;;;;;;;15.43;93.04;101761.25;5074051;28;20074;-36
2023/05/21 06:54:19;;;;;;;;;;;;;;;15.54;92.37;101762.28;5074467;28;20056;-37
2023/05/21 06:56:45;;;;;;;11.60;4.75;;;;;;;15.40;92.86;101756.28;5074015;28;20260;-36
2023/05/21 06:59:11;;;;;;;;;;;;;;;15.56;92.17;101760.97;5073476;28;20028;-36
2023/05/21 07:01:36;;;;;;;5.05;4.22;;;;;;;15.50;92.32;101764.66;5073664;28;20007;-36
2023/05/21 07:04:01;;;;;;;4.25;3.60;;;;;;;15.61;92.43;101762.97;5073705;28;20060;-36
2023/05/21 07:06:27;;;;;;;4.00;3.60;;;;;;;15.55;91.92;101758.50;5073543;28;20100;-37
2023/05/21 07:08:52;;;;;;;;;;;;;;;15.73;91.70;101754.78;5073831;28;20028;-36
2023/05/21 07:11:17;;;;;;;4.18;3.78;;;;;;;15.66;92.83;101753.06;5073397;28;20360;-36
2023/05/21 07:13:43;;;;;;;;;;;;;;;15.84;92.07;101749.28;5074250;28;20081;-36
2023/05/21 07:16:08;;;;;;;5.97;4.33;;;;;;;15.68;92.11;101740.00;5072999;28;19956;-36
2023/05/21 07:18:33;;;;;;;;;;;;;;;15.87;91.78;101739.81;5073665;28;20274;-37
2023/05/21 07:20:59;;;;;;;4.93;3.70;;;;;;;15.90;91.89;101739.28;5073259;28;19912;-37
2023/05/21 07:23:24;;;;;;;;;;;;;;;16.07;91.37;101737.44;5077679;28;20025;-37
2023/05/21 07:25:50;;;;;;;5.20;4.25;;;;;;;16.01;91.97;101735.69;5076944;28;19912;-37
2023/05/21 07:28:15;;;;;;;;;;;;;;;16.20;90.99;101731.66;5077902;28;20025;-37
2023/05/21 07:30:41;;;;;;;5.60;4.27;;;;;;;16.26;90.61;101737.22;5077123;28;19909;-37
2023/05/21 07:33:06;;;;;;;;;;;;;;;16.38;90.16;101741.50;5077767;28;20270;-37
2023/05/21 07:35:31;;;;;;;6.43;4.87;;;;;;;16.26;89.36;101743.50;5077309;28;20359;-37
2023/05/21 07:37:56;;;;;;;;;;;;;;;16.52;89.50;101735.72;5077761;28;20270;-36
2023/05/21 07:40:22;;;;;;;5.27;4.20;;;;;;;16.67;89.68;101741.41;5077409;28;20303;-36
2023/05/21 07:42:47;;;;;;;;;;;;;;;16.76;87.94;101744.59;5077302;28;20358;-36
2023/05/21 07:45:12;;;;;;;4.72;4.32;;;;;;;16.85;87.76;101730.25;5077124;28;19962;-37
2023/05/21 07:47:37;;;;;;;;;;;;;;;17.04;87.58;101738.97;5077533;28;20431;-37
2023/05/21 07:50:03;;;;;;;5.07;4.28;;;;;;;17.02;85.89;101724.72;5077267;28;19914;-37
2023/05/21 07:52:29;;;;;;;;;;;;;;;17.14;86.78;101733.66;5077090;28;20039;-37
2023/05/21 07:54:54;;;;;;;5.13;4.63;;;;;;;17.03;86.00;101720.09;5077480;28;19909;-37
2023/05/21 07:57:20;;;;;;;;;;;;;;;17.29;86.79;101726.72;5077038;28;20274;-37
2023/05/21 07:59:45;;;;;;;5.13;3.95;;;;;;;17.24;85.67;101714.66;5076694;28;19917;-37
2023/05/21 08:02:11;;;;;;;;;;;;;;;17.57;84.67;101726.53;5077554;28;20025;-37
2023/05/21 08:04:37;;;;;;;5.20;4.60;;;;;;;17.54;83.84;101727.03;5077256;28;19908;-37
2023/05/21 08:07:02;;;;;;;;;;;;;;;17.66;83.92;101724.97;5076568;28;20342;-37
2023/05/21 08:09:27;;;;;;;5.97;4.30;;;;;;;17.63;82.65;101732.88;5076937;28;19908;-37
2023/05/21 08:11:53;;;;;;;6.15;4.32;;;;;;;17.69;83.72;101735.41;5076884;28;20078;-36
2023/05/21 08:14:18;;;;;;;;;;;;;;;17.91;83.45;101731.81;5076381;28;20362;-37
2023/05/21 08:16:44;;;;;;;5.00;4.50;;;;;;;17.82;82.05;101734.22;5076574;28;19958;-37
2023/05/21 08:19:09;;;;;;;6.00;4.35;;;;;;;17.90;81.76;101728.25;5076235;28;20103;-36
2023/05/21 08:21:35;;;;;;;5.30;4.40;;;;;;;18.01;81.90;101721.00;5076461;28;20389;-37
2023/05/21 08:24:01;;;;;;;5.45;4.32;;;;;;;18.15;80.99;101726.84;5076342;28;20094;-37
2023/05/21 08:26:27;;;;;;;6.50;4.97;;;;;;;18.35;82.94;101726.19;5075795;28;20064;-37
2023/05/21 08:28:52;;;;;;;;;;;;;;;18.56;83.10;101725.28;5076448;28;20067;-37
2023/05/21 08:31:18;;;;;;;4.72;3.90;;;;;;;18.51;81.03;101711.53;5075794;28;19987;-37
2023/05/21 08:33:53;;;;;;;5.32;4.43;;;;;;;18.63;79.04;101714.91;5075521;28;20029;-35
2023/05/21 08:36:19;;;;;;;6.50;4.68;;;;;;;18.51;77.91;101709.63;5076541;28;20025;-37
2023/05/21 08:38:45;;;;;;;5.90;5.05;;;;;;;18.34;77.77;101710.84;5075594;28;20161;-36
2023/05/21 08:41:11;;;;;;;;;;;;;;;18.50;78.08;101710.72;5076513;28;20035;-36
2023/05/21 08:43:38;;;;;;;6.65;4.35;;;;;;;18.45;80.28;101691.53;5075713;28;20360;-36
2023/05/21 08:46:04;;;;;;;6.28;4.75;;;;;;;18.57;78.91;101702.25;5075726;28;20024;-36
2023/05/21 08:48:30;;;;;;;4.63;4.20;;;;;;;18.75;79.42;101710.09;5075658;28;20376;-36
2023/05/21 08:50:55;;;;;;;5.90;3.92;;;;;;;18.80;78.39;101705.75;5075621;28;20480;-36
2023/05/21 08:53:22;;;;;;;;;;;;;;;19.14;79.69;101696.03;5076536;28;20029;-36
2023/05/21 08:55:51;;;;;;;5.93;4.43;;;;;;;19.07;76.64;101686.41;5075829;28;19919;-36
2023/05/21 08:58:17;;;;;;;4.65;4.13;;;;;;;19.26;77.32;101684.84;5075423;28;20055;-36
2023/05/21 09:00:42;;;;;;;6.53;4.43;;;;;;;19.28;77.00;101696.38;5074986;28;20483;-36
2023/05/21 09:03:10;;;;;;;;;;;;;;;19.55;77.67;101705.22;5075511;28;20037;-36
2023/05/21 09:05:40;;;;;;;5.13;4.10;;;;;;;19.70;76.34;101703.66;5075371;28;19915;-36
2023/05/21 09:08:12;;;;;;;4.88;4.10;;;;;;;19.77;73.70;101691.31;5075009;28;20047;-36
2023/05/21 09:10:40;;;;;;;4.20;3.80;;;;;;;19.94;73.49;101682.81;5076071;28;20032;-37
2023/05/21 09:13:06;;;;;;;4.93;3.90;;;;;;;19.99;72.91;101671.84;5075478;28;20078;-37
2023/05/21 09:15:32;;;;;;;6.18;4.30;;;;;;;20.15;72.32;101683.66;5075986;28;20073;-36
2023/05/21 09:17:57;;;;;;;5.20;4.45;;;;;;;20.08;72.89;101694.09;5075044;28;20419;-36
2023/05/21 09:20:25;;;;;;;5.22;4.72;;;;;;;20.06;72.24;101685.31;5074671;28;20187;-36
2023/05/21 09:22:51;;;;;;;4.57;4.13;;;;;;;20.19;72.54;101701.22;5074909;28;20029;-36
2023/05/21 09:25:20;;;;;;;5.43;4.35;;;;;;;20.16;71.69;101698.22;5075253;28;20061;-36
2023/05/21 09:27:45;;;;;;;5.35;4.85;;;;;;;20.10;71.20;101694.63;5075416;28;20468;-36
2023/05/21 09:30:13;;;;;;;7.32;4.53;;;;;;;20.01;71.89;101655.94;5074862;28;20060;-36
2023/05/21 09:32:40;;;;;;;5.53;4.45;;;;;;;20.39;70.69;101686.66;5074751;28;20032;-36
2023/05/21 09:35:07;;;;;;;5.18;4.68;;;;;;;20.43;70.75;101690.50;5074732;28;20031;-36
2023/05/21 09:37:36;;;;;;;4.82;4.32;;;;;;;20.69;71.01;101685.84;5074708;28;20028;-36
2023/05/21 09:40:09;;;;;;;5.00;4.07;;;;;;;20.65;69.94;101671.00;5074221;28;20025;-36
2023/05/21 09:42:34;;;;;;;6.30;4.30;;;;;;;20.69;68.76;101687.72;5074603;28;20028;-36
2023/05/21 09:45:00;;;;;;;5.68;4.40;;;;;;;20.70;69.64;101673.72;5073718;28;20032;-36
2023/05/21 09:47:25;;;;;;;6.20;4.53;;;;;;;20.62;70.45;101668.78;5074533;28;20461;-36
2023/05/21 09:49:50;;;;;;;5.35;4.85;;;;;;;20.56;69.38;101676.22;5075240;28;20062;-36
2023/05/21 09:52:26;;;;;;;6.00;4.50;;;;;;;20.62;71.00;101678.97;5075287;28;20055;-36
2023/05/21 09:54:52;;;;;;;5.78;4.35;;;;;;;20.56;70.09;101673.47;5074346;28;20025;-36
2023/05/21 09:57:25;;;;;;;5.88;4.78;;;;;;;20.65;70.37;101670.19;5074670;28;20260;-36
2023/05/21 09:59:50;;;;;;;6.03;4.90;;;;;;;20.77;70.85;101668.75;5074903;28;20373;-36
2023/05/21 10:02:20;;;;;;;7.63;4.82;;;;;;;20.83;69.52;101670.38;5074841;28;20032;-36
2023/05/21 10:04:48;;;;;;;6.82;4.88;;;;;;;20.86;68.62;101680.00;5074927;28;20028;-37
2023/05/21 10:07:25;;;;;;;8.23;5.40;;;;;;;20.97;67.46;101648.63;5074418;28;20484;-36
2023/05/21 10:09:56;;;;;;;5.20;4.68;;;;;;;21.22;67.73;101661.41;5074335;28;20064;-36
2023/05/21 10:12:23;;;;;;;6.38;5.40;;;;;;;21.24;67.45;101661.16;5074858;28;20032;-36
2023/05/21 10:14:53;;;;;;;5.95;4.60;;;;;;;21.27;69.69;101663.31;5073993;28;20382;-36
2023/05/21 10:17:20;;;;;;;5.82;5.15;;;;;;;21.41;67.17;101655.31;5073975;28;20499;-36
2023/05/21 10:19:47;;;;;;;4.80;4.35;;;;;;;21.64;67.37;101657.38;5073901;28;20043;-36
2023/05/21 10:22:13;;;;;;;6.25;4.95;;;;;;;21.79;66.69;101650.94;5074747;28;20024;-36
2023/05/21 10:24:39;;;;;;;7.90;4.85;;;;;;;21.94;65.63;101650.81;5073801;28;20028;-37
2023/05/21 10:27:06;;;;;;;6.32;5.18;;;;;;;21.78;65.38;101654.78;5073534;28;20024;-37
2023/05/21 10:29:32;;;;;;;6.80;5.22;;;;;;;21.69;66.25;101640.81;5073837;28;20376;-36
2023/05/21 10:32:00;;;;;;;6.00;5.35;;;;;;;21.78;66.26;101644.59;5074107;28;20074;-36
2023/05/21 10:34:27;;;;;;;6.72;5.63;;;;;;;21.60;65.18;101620.50;5074129;28;20077;-37
2023/05/21 10:36:54;;;;;;;5.32;4.82;;;;;;;21.93;65.16;101642.84;5074539;28;20033;-37
2023/05/21 10:39:22;;;;;;;7.10;5.60;;;;;;;21.91;65.14;101642.28;5073509;28;20418;-37
2023/05/21 10:42:07;;;;;;;5.10;4.60;;;;;;;22.13;66.15;101634.44;5073629;28;20047;-37
2023/05/21 10:44:59;;;;;;;4.88;4.38;;;;;;;22.10;65.47;101629.44;5074082;28;20066;-37
2023/05/21 10:47:46;;;;;;;7.30;5.40;;;;;;;22.11;65.82;101620.13;5073887;28;20021;-37
2023/05/21 10:50:51;;;;;;;7.18;5.47;;;;;;;22.30;65.15;101621.06;5073544;28;20376;-37
2023/05/21 10:53:42;;;;;;;7.28;6.43;;;;;;;22.32;63.55;101602.28;5073496;28;20035;-37
2023/05/21 10:56:58;;;;;;;6.90;5.63;;;;;;;22.85;64.87;101618.75;5072578;28;20047;-37
2023/05/21 10:59:29;;;;;;;6.38;5.78;;;;;;;22.70;61.89;101618.97;5050856;28;20432;-37
2023/05/21 11:01:55;;;;;;;7.05;6.22;;;;;;;22.66;61.38;101615.13;5051111;28;20037;-37
2023/05/21 11:04:22;;;;;;;8.98;6.15;;;;;;;22.55;61.75;101608.09;5064190;28;20047;-37
2023/05/21 11:06:48;;;;;;;6.70;5.93;;;;;;;22.76;63.18;101595.72;5073956;28;20024;-37
2023/05/21 11:09:14;;;;;;;6.38;5.78;;;;;;;22.90;61.86;101593.09;5073358;28;20025;-37
2023/05/21 11:11:47;;;;;;;6.97;5.90;;;;;;;23.00;61.59;101586.63;5073645;28;20028;-37
2023/05/21 11:14:35;;;;;;;7.00;6.30;;;;;;;23.20;62.45;101596.56;5072965;28;20033;-37
2023/05/21 11:17:02;;;;;;;7.00;6.30;;;;;;;23.17;63.53;101586.09;5073261;28;20056;-37
2023/05/21 11:19:34;;;;;;;7.20;6.50;;;;;;;23.32;60.58;101589.44;5073039;28;20477;-37
2023/05/21 11:21:59;;;;;;;7.97;7.15;;;;;;;23.16;60.02;101568.72;5073804;28;20038;-37
2023/05/21 11:24:27;;;;;;;6.30;5.70;;;;;;;23.56;60.60;101583.03;5074017;28;20445;-37
2023/05/21 11:26:57;;;;;;;6.70;6.07;;;;;;;23.51;60.64;101583.91;5073741;28;20043;-38
2023/05/21 11:29:32;;;;;;;8.40;6.55;;;;;;;23.72;60.11;101581.69;5073102;28;20036;-37
2023/05/21 11:32:01;;;;;;;7.32;6.05;;;;;;;23.84;58.76;101570.97;5073955;28;20032;-37
2023/05/21 11:34:36;;;;;;;6.65;5.85;;;;;;;23.87;58.51;101564.84;5073057;28;20058;-37
2023/05/21 11:37:22;;;;;;;8.32;5.72;;;;;;;24.14;59.34;101564.06;5073312;28;20032;-37
2023/05/21 11:39:48;;;;;;;8.00;6.25;;;;;;;24.06;58.48;101564.81;5072927;28;20025;-37